sensor_id;sensor_type;location;lat;lon;timestamp;pressure;altitude;pressure_sealevel;temperature;humidity
24666;BME280;29726;53.532;-1.478;2022-07-22T00:00:31;101341.72;;;23.20;nan
24666;BME280;29726;53.532;-1.478;2022-07-22T00:02:57;101340.41;;;23.21;nan
24666;BME280;29726;53.532;-1.478;2022-07-22T00:05:22;101336.00;;;23.20;nan
24666;BME280;29726;53.532;-1.478;2022-07-22T00:07:48;101327.00;;;23.16;nan
24666;BME280;29726;53.532;-1.478;2022-07-22T00:10:13;101336.06;;;23.14;nan
24666;BME280;29726;53.532;-1.478;2022-07-22T00:12:39;101329.84;;;23.16;nan
24666;BME280;29726;53.532;-1.478;2022-07-22T00:15:07;101332.69;;;23.16;nan
24666;BME280;29726;53.532;-1.478;2022-07-22T00:17:33;101328.31;;;23.15;nan
24666;BME280;29726;53.532;-1.478;2022-07-22T00:19:58;101328.81;;;23.13;nan
24666;BME280;29726;53.532;-1.478;2022-07-22T00:22:24;101320.03;;;23.11;nan
24666;BME280;29726;53.532;-1.478;2022-07-22T00:24:49;101325.75;;;23.11;nan
24666;BME280;29726;53.532;-1.478;2022-07-22T00:27:15;101322.13;;;23.11;nan
24666;BME280;29726;53.532;-1.478;2022-07-22T00:29:41;101316.94;;;23.09;nan
24666;BME280;29726;53.532;-1.478;2022-07-22T00:32:06;101323.41;;;23.10;nan
24666;BME280;29726;53.532;-1.478;2022-07-22T00:34:32;101326.00;;;23.08;nan
24666;BME280;29726;53.532;-1.478;2022-07-22T00:36:58;101323.16;;;23.08;nan
24666;BME280;29726;53.532;-1.478;2022-07-22T00:39:23;101324.47;;;23.07;nan
24666;BME280;29726;53.532;-1.478;2022-07-22T00:41:49;101321.59;;;23.07;nan
24666;BME280;29726;53.532;-1.478;2022-07-22T00:44:15;101309.97;;;23.05;nan
24666;BME280;29726;53.532;-1.478;2022-07-22T00:46:40;101305.34;;;23.02;nan
24666;BME280;29726;53.532;-1.478;2022-07-22T00:49:08;101313.91;;;23.02;nan
24666;BME280;29726;53.532;-1.478;2022-07-22T00:51:34;101311.06;;;23.02;nan
24666;BME280;29726;53.532;-1.478;2022-07-22T00:54:03;101321.69;;;23.01;nan
24666;BME280;29726;53.532;-1.478;2022-07-22T00:56:29;101312.13;;;22.99;nan
24666;BME280;29726;53.532;-1.478;2022-07-22T00:58:57;101319.38;;;23.00;nan
24666;BME280;29726;53.532;-1.478;2022-07-22T01:01:23;101318.09;;;22.95;nan
24666;BME280;29726;53.532;-1.478;2022-07-22T01:03:49;101310.59;;;22.98;nan
24666;BME280;29726;53.532;-1.478;2022-07-22T01:06:15;101309.03;;;22.97;nan
24666;BME280;29726;53.532;-1.478;2022-07-22T01:08:40;101301.56;;;22.94;nan
24666;BME280;29726;53.532;-1.478;2022-07-22T01:11:11;101302.31;;;22.94;nan
24666;BME280;29726;53.532;-1.478;2022-07-22T01:13:37;101294.63;;;22.89;nan
24666;BME280;29726;53.532;-1.478;2022-07-22T01:16:04;101296.38;;;22.92;nan
24666;BME280;29726;53.532;-1.478;2022-07-22T01:18:31;101291.00;;;22.89;nan
24666;BME280;29726;53.532;-1.478;2022-07-22T01:20:56;101288.91;;;22.89;nan
24666;BME280;29726;53.532;-1.478;2022-07-22T01:23:22;101294.38;;;22.87;nan
24666;BME280;29726;53.532;-1.478;2022-07-22T01:25:48;101285.84;;;22.87;nan
24666;BME280;29726;53.532;-1.478;2022-07-22T01:28:13;101281.44;;;22.86;nan
24666;BME280;29726;53.532;-1.478;2022-07-22T01:30:39;101283.28;;;22.84;nan
24666;BME280;29726;53.532;-1.478;2022-07-22T01:33:05;101288.97;;;22.84;nan
24666;BME280;29726;53.532;-1.478;2022-07-22T01:35:30;101286.91;;;22.84;nan
24666;BME280;29726;53.532;-1.478;2022-07-22T01:37:56;101282.28;;;22.81;nan
24666;BME280;29726;53.532;-1.478;2022-07-22T01:40:21;101280.97;;;22.82;nan
24666;BME280;29726;53.532;-1.478;2022-07-22T01:42:47;101280.97;;;22.82;nan
24666;BME280;29726;53.532;-1.478;2022-07-22T01:45:13;101276.13;;;22.77;nan
24666;BME280;29726;53.532;-1.478;2022-07-22T01:47:39;101268.31;;;22.78;nan
24666;BME280;29726;53.532;-1.478;2022-07-22T01:50:05;101273.78;;;22.76;nan
24666;BME280;29726;53.532;-1.478;2022-07-22T01:52:33;101276.13;;;22.77;nan
24666;BME280;29726;53.532;-1.478;2022-07-22T01:54:59;101271.72;;;22.76;nan
24666;BME280;29726;53.532;-1.478;2022-07-22T01:57:25;101270.47;;;22.72;nan
24666;BME280;29726;53.532;-1.478;2022-07-22T01:59:50;101274.84;;;22.73;nan
24666;BME280;29726;53.532;-1.478;2022-07-22T02:02:16;101281.31;;;22.73;nan
24666;BME280;29726;53.532;-1.478;2022-07-22T02:04:42;101268.94;;;22.71;nan
24666;BME280;29726;53.532;-1.478;2022-07-22T02:07:08;101274.38;;;22.69;nan
24666;BME280;29726;53.532;-1.478;2022-07-22T02:09:34;101278.78;;;22.70;nan
24666;BME280;29726;53.532;-1.478;2022-07-22T02:12:00;101287.84;;;22.68;nan
24666;BME280;29726;53.532;-1.478;2022-07-22T02:14:25;101277.00;;;22.67;nan
24666;BME280;29726;53.532;-1.478;2022-07-22T02:16:51;101278.31;;;22.66;nan
24666;BME280;29726;53.532;-1.478;2022-07-22T02:19:17;101278.31;;;22.66;nan
24666;BME280;29726;53.532;-1.478;2022-07-22T02:21:42;101276.75;;;22.65;nan
24666;BME280;29726;53.532;-1.478;2022-07-22T02:24:08;101278.06;;;22.64;nan
24666;BME280;29726;53.532;-1.478;2022-07-22T02:26:34;101276.53;;;22.63;nan
24666;BME280;29726;53.532;-1.478;2022-07-22T02:28:59;101277.81;;;22.62;nan
24666;BME280;29726;53.532;-1.478;2022-07-22T02:31:25;101268.78;;;22.58;nan
24666;BME280;29726;53.532;-1.478;2022-07-22T02:33:51;101273.97;;;22.59;nan
24666;BME280;29726;53.532;-1.478;2022-07-22T02:36:17;101278.13;;;22.58;nan
24666;BME280;29726;53.532;-1.478;2022-07-22T02:38:42;101272.72;;;22.55;nan
24666;BME280;29726;53.532;-1.478;2022-07-22T02:41:08;101276.34;;;22.55;nan
24666;BME280;29726;53.532;-1.478;2022-07-22T02:43:34;101270.66;;;22.55;nan
24666;BME280;29726;53.532;-1.478;2022-07-22T02:45:59;101274.78;;;22.54;nan
24666;BME280;29726;53.532;-1.478;2022-07-22T02:48:25;101276.84;;;22.54;nan
24666;BME280;29726;53.532;-1.478;2022-07-22T02:50:51;101271.72;;;22.52;nan
24666;BME280;29726;53.532;-1.478;2022-07-22T02:53:16;101270.16;;;22.51;nan
24666;BME280;29726;53.532;-1.478;2022-07-22T02:55:42;101268.59;;;22.50;nan
24666;BME280;29726;53.532;-1.478;2022-07-22T02:58:08;101263.47;;;22.49;nan
24666;BME280;29726;53.532;-1.478;2022-07-22T03:00:35;101266.31;;;22.49;nan
24666;BME280;29726;53.532;-1.478;2022-07-22T03:03:03;101257.28;;;22.45;nan
24666;BME280;29726;53.532;-1.478;2022-07-22T03:05:29;101257.53;;;22.47;nan
24666;BME280;29726;53.532;-1.478;2022-07-22T03:07:55;101260.38;;;22.47;nan
24666;BME280;29726;53.532;-1.478;2022-07-22T03:10:21;101252.34;;;22.45;nan
24666;BME280;29726;53.532;-1.478;2022-07-22T03:12:47;101253.41;;;22.42;nan
24666;BME280;29726;53.532;-1.478;2022-07-22T03:15:13;101249.03;;;22.41;nan
24666;BME280;29726;53.532;-1.478;2022-07-22T03:17:38;101249.28;;;22.43;nan
24666;BME280;29726;53.532;-1.478;2022-07-22T03:20:05;101241.03;;;22.40;nan
24666;BME280;29726;53.532;-1.478;2022-07-22T03:22:32;101236.91;;;22.41;nan
24666;BME280;29726;53.532;-1.478;2022-07-22T03:24:58;101244.66;;;22.40;nan
24666;BME280;29726;53.532;-1.478;2022-07-22T03:27:24;101248.00;;;22.39;nan
24666;BME280;29726;53.532;-1.478;2022-07-22T03:29:49;101240.78;;;22.38;nan
24666;BME280;29726;53.532;-1.478;2022-07-22T03:32:15;101243.63;;;22.38;nan
24666;BME280;29726;53.532;-1.478;2022-07-22T03:34:40;101237.19;;;22.37;nan
24666;BME280;29726;53.532;-1.478;2022-07-22T03:37:06;101237.66;;;22.36;nan
24666;BME280;29726;53.532;-1.478;2022-07-22T03:39:31;101241.28;;;22.36;nan
24666;BME280;29726;53.532;-1.478;2022-07-22T03:41:57;101235.38;;;22.34;nan
24666;BME280;29726;53.532;-1.478;2022-07-22T03:44:23;101227.34;;;22.33;nan
24666;BME280;29726;53.532;-1.478;2022-07-22T03:46:48;101233.03;;;22.33;nan
24666;BME280;29726;53.532;-1.478;2022-07-22T03:49:14;101244.41;;;22.33;nan
24666;BME280;29726;53.532;-1.478;2022-07-22T03:51:40;101237.19;;;22.32;nan
24666;BME280;29726;53.532;-1.478;2022-07-22T03:54:05;101234.91;;;22.30;nan
24666;BME280;29726;53.532;-1.478;2022-07-22T03:56:31;101227.91;;;22.31;nan
24666;BME280;29726;53.532;-1.478;2022-07-22T03:58:57;101225.56;;;22.30;nan
24666;BME280;29726;53.532;-1.478;2022-07-22T04:01:22;101226.88;;;22.29;nan
24666;BME280;29726;53.532;-1.478;2022-07-22T04:03:48;101221.19;;;22.29;nan
24666;BME280;29726;53.532;-1.478;2022-07-22T04:06:15;101222.25;;;22.26;nan
24666;BME280;29726;53.532;-1.478;2022-07-22T04:08:40;101222.25;;;22.26;nan
24666;BME280;29726;53.532;-1.478;2022-07-22T04:11:06;101213.72;;;22.26;nan
24666;BME280;29726;53.532;-1.478;2022-07-22T04:13:32;101216.31;;;22.24;nan
24666;BME280;29726;53.532;-1.478;2022-07-22T04:15:58;101207.00;;;22.23;nan
24666;BME280;29726;53.532;-1.478;2022-07-22T04:18:23;101203.41;;;22.23;nan
24666;BME280;29726;53.532;-1.478;2022-07-22T04:20:49;101212.69;;;22.23;nan
24666;BME280;29726;53.532;-1.478;2022-07-22T04:23:15;101213.25;;;22.22;nan
24666;BME280;29726;53.532;-1.478;2022-07-22T04:25:40;101208.06;;;22.20;nan
24666;BME280;29726;53.532;-1.478;2022-07-22T04:28:06;101216.59;;;22.20;nan
24666;BME280;29726;53.532;-1.478;2022-07-22T04:30:32;101217.38;;;22.21;nan
24666;BME280;29726;53.532;-1.478;2022-07-22T04:32:57;101206.53;;;22.19;nan
24666;BME280;29726;53.532;-1.478;2022-07-22T04:35:24;101201.38;;;22.18;nan
24666;BME280;29726;53.532;-1.478;2022-07-22T04:37:50;101203.69;;;22.19;nan
24666;BME280;29726;53.532;-1.478;2022-07-22T04:40:16;101197.22;;;22.19;nan
24666;BME280;29726;53.532;-1.478;2022-07-22T04:42:42;101199.06;;;22.16;nan
24666;BME280;29726;53.532;-1.478;2022-07-22T04:45:08;101204.75;;;22.16;nan
24666;BME280;29726;53.532;-1.478;2022-07-22T04:47:34;101205.53;;;22.17;nan
24666;BME280;29726;53.532;-1.478;2022-07-22T04:49:59;101201.13;;;22.16;nan
24666;BME280;29726;53.532;-1.478;2022-07-22T04:52:25;101202.41;;;22.15;nan
24666;BME280;29726;53.532;-1.478;2022-07-22T04:54:51;101202.97;;;22.13;nan
24666;BME280;29726;53.532;-1.478;2022-07-22T04:57:16;101213.81;;;22.15;nan
24666;BME280;29726;53.532;-1.478;2022-07-22T04:59:42;101211.50;;;22.13;nan
24666;BME280;29726;53.532;-1.478;2022-07-22T05:02:08;101214.88;;;22.12;nan
24666;BME280;29726;53.532;-1.478;2022-07-22T05:04:34;101209.41;;;22.14;nan
24666;BME280;29726;53.532;-1.478;2022-07-22T05:06:59;101212.03;;;22.12;nan
24666;BME280;29726;53.532;-1.478;2022-07-22T05:09:25;101214.34;;;22.13;nan
24666;BME280;29726;53.532;-1.478;2022-07-22T05:11:51;101209.19;;;22.12;nan
24666;BME280;29726;53.532;-1.478;2022-07-22T05:14:17;101216.16;;;22.11;nan
24666;BME280;29726;53.532;-1.478;2022-07-22T05:16:43;101201.94;;;22.11;nan
24666;BME280;29726;53.532;-1.478;2022-07-22T05:19:08;101203.25;;;22.10;nan
24666;BME280;29726;53.532;-1.478;2022-07-22T05:21:34;101197.56;;;22.10;nan
24666;BME280;29726;53.532;-1.478;2022-07-22T05:24:00;101196.03;;;22.09;nan
24666;BME280;29726;53.532;-1.478;2022-07-22T05:26:26;101204.56;;;22.09;nan
24666;BME280;29726;53.532;-1.478;2022-07-22T05:28:55;101194.47;;;22.08;nan
24666;BME280;29726;53.532;-1.478;2022-07-22T05:31:20;101197.09;;;22.06;nan
24666;BME280;29726;53.532;-1.478;2022-07-22T05:33:46;101205.84;;;22.08;nan
24666;BME280;29726;53.532;-1.478;2022-07-22T05:36:11;101208.69;;;22.08;nan
24666;BME280;29726;53.532;-1.478;2022-07-22T05:38:37;101203.56;;;22.06;nan
24666;BME280;29726;53.532;-1.478;2022-07-22T05:41:03;101207.44;;;22.03;nan
24666;BME280;29726;53.532;-1.478;2022-07-22T05:43:29;101221.38;;;22.07;nan
24666;BME280;29726;53.532;-1.478;2022-07-22T05:45:54;101214.16;;;22.06;nan
24666;BME280;29726;53.532;-1.478;2022-07-22T05:48:20;101211.84;;;22.04;nan
24666;BME280;29726;53.532;-1.478;2022-07-22T05:50:46;101212.59;;;22.05;nan
24666;BME280;29726;53.532;-1.478;2022-07-22T05:53:11;101204.59;;;22.03;nan
24666;BME280;29726;53.532;-1.478;2022-07-22T05:55:37;101205.13;;;22.02;nan
24666;BME280;29726;53.532;-1.478;2022-07-22T05:58:03;101202.28;;;22.02;nan
24666;BME280;29726;53.532;-1.478;2022-07-22T06:00:28;101206.44;;;22.01;nan
24666;BME280;29726;53.532;-1.478;2022-07-22T06:02:54;101204.34;;;22.01;nan
24666;BME280;29726;53.532;-1.478;2022-07-22T06:05:20;101205.66;;;22.00;nan
24666;BME280;29726;53.532;-1.478;2022-07-22T06:07:45;101208.50;;;22.00;nan
24666;BME280;29726;53.532;-1.478;2022-07-22T06:10:11;101208.50;;;22.00;nan
24666;BME280;29726;53.532;-1.478;2022-07-22T06:12:36;101207.75;;;22.00;nan
24666;BME280;29726;53.532;-1.478;2022-07-22T06:15:03;101213.44;;;22.00;nan
24666;BME280;29726;53.532;-1.478;2022-07-22T06:17:30;101216.28;;;22.00;nan
24666;BME280;29726;53.532;-1.478;2022-07-22T06:19:55;101208.25;;;21.98;nan
24666;BME280;29726;53.532;-1.478;2022-07-22T06:22:21;101213.94;;;21.98;nan
24666;BME280;29726;53.532;-1.478;2022-07-22T06:24:46;101212.41;;;21.98;nan
24666;BME280;29726;53.532;-1.478;2022-07-22T06:27:12;101214.50;;;21.97;nan
24666;BME280;29726;53.532;-1.478;2022-07-22T06:29:38;101212.41;;;21.98;nan
24666;BME280;29726;53.532;-1.478;2022-07-22T06:32:04;101215.78;;;21.96;nan
24666;BME280;29726;53.532;-1.478;2022-07-22T06:34:30;101216.56;;;21.97;nan
24666;BME280;29726;53.532;-1.478;2022-07-22T06:36:55;101212.16;;;21.96;nan
24666;BME280;29726;53.532;-1.478;2022-07-22T06:39:21;101217.84;;;21.96;nan
24666;BME280;29726;53.532;-1.478;2022-07-22T06:41:46;101229.22;;;21.96;nan
24666;BME280;29726;53.532;-1.478;2022-07-22T06:44:12;101203.19;;;21.86;nan
24666;BME280;29726;53.532;-1.478;2022-07-22T06:46:38;101214.78;;;21.94;nan
24666;BME280;29726;53.532;-1.478;2022-07-22T06:49:04;101219.69;;;21.93;nan
24666;BME280;29726;53.532;-1.478;2022-07-22T06:51:29;101216.59;;;21.91;nan
24666;BME280;29726;53.532;-1.478;2022-07-22T06:53:55;101215.84;;;21.91;nan
24666;BME280;29726;53.532;-1.478;2022-07-22T06:56:21;101220.22;;;21.92;nan
24666;BME280;29726;53.532;-1.478;2022-07-22T06:58:46;101219.44;;;21.91;nan
24666;BME280;29726;53.532;-1.478;2022-07-22T07:01:12;101217.88;;;21.90;nan
24666;BME280;29726;53.532;-1.478;2022-07-22T07:03:37;101207.81;;;21.89;nan
24666;BME280;29726;53.532;-1.478;2022-07-22T07:06:04;101216.34;;;21.89;nan
24666;BME280;29726;53.532;-1.478;2022-07-22T07:08:31;101209.13;;;21.88;nan
24666;BME280;29726;53.532;-1.478;2022-07-22T07:10:57;101207.06;;;21.89;nan
24666;BME280;29726;53.532;-1.478;2022-07-22T07:13:22;101212.75;;;21.89;nan
24666;BME280;29726;53.532;-1.478;2022-07-22T07:15:48;101214.06;;;21.88;nan
24666;BME280;29726;53.532;-1.478;2022-07-22T07:18:14;101211.72;;;21.86;nan
24666;BME280;29726;53.532;-1.478;2022-07-22T07:20:40;101207.88;;;21.84;nan
24666;BME280;29726;53.532;-1.478;2022-07-22T07:23:05;101211.72;;;21.86;nan
24666;BME280;29726;53.532;-1.478;2022-07-22T07:25:31;101219.50;;;21.86;nan
24666;BME280;29726;53.532;-1.478;2022-07-22T07:27:57;101215.88;;;21.85;nan
24666;BME280;29726;53.532;-1.478;2022-07-22T07:30:22;101215.09;;;21.85;nan
24666;BME280;29726;53.532;-1.478;2022-07-22T07:32:48;101221.56;;;21.85;nan
24666;BME280;29726;53.532;-1.478;2022-07-22T07:35:14;101220.81;;;21.85;nan
24666;BME280;29726;53.532;-1.478;2022-07-22T07:37:39;101222.09;;;21.84;nan
24666;BME280;29726;53.532;-1.478;2022-07-22T07:40:05;101223.41;;;21.83;nan
24666;BME280;29726;53.532;-1.478;2022-07-22T07:42:31;101213.06;;;21.80;nan
24666;BME280;29726;53.532;-1.478;2022-07-22T07:44:57;101227.53;;;21.82;nan
24666;BME280;29726;53.532;-1.478;2022-07-22T07:47:23;101218.22;;;21.81;nan
24666;BME280;29726;53.532;-1.478;2022-07-22T07:49:49;101211.00;;;21.80;nan
24666;BME280;29726;53.532;-1.478;2022-07-22T07:52:16;101219.28;;;21.78;nan
24666;BME280;29726;53.532;-1.478;2022-07-22T07:54:42;101222.88;;;21.79;nan
24666;BME280;29726;53.532;-1.478;2022-07-22T07:57:09;101209.22;;;21.77;nan
24666;BME280;29726;53.532;-1.478;2022-07-22T07:59:37;101209.22;;;21.77;nan
24666;BME280;29726;53.532;-1.478;2022-07-22T08:02:03;101213.34;;;21.76;nan
24666;BME280;29726;53.532;-1.478;2022-07-22T08:04:30;101205.59;;;21.77;nan
24666;BME280;29726;53.532;-1.478;2022-07-22T08:06:56;101200.22;;;21.73;nan
24666;BME280;29726;53.532;-1.478;2022-07-22T08:09:23;101206.13;;;21.75;nan
24666;BME280;29726;53.532;-1.478;2022-07-22T08:11:49;101201.75;;;21.74;nan
24666;BME280;29726;53.532;-1.478;2022-07-22T08:14:14;101196.06;;;21.74;nan
24666;BME280;29726;53.532;-1.478;2022-07-22T08:16:40;101203.06;;;21.73;nan
24666;BME280;29726;53.532;-1.478;2022-07-22T08:19:06;101198.66;;;21.72;nan
24666;BME280;29726;53.532;-1.478;2022-07-22T08:21:31;101200.22;;;21.73;nan
24666;BME280;29726;53.532;-1.478;2022-07-22T08:23:57;101199.97;;;21.71;nan
24666;BME280;29726;53.532;-1.478;2022-07-22T08:26:23;101198.16;;;21.68;nan
24666;BME280;29726;53.532;-1.478;2022-07-22T08:28:49;101196.34;;;21.71;nan
24666;BME280;29726;53.532;-1.478;2022-07-22T08:31:14;101194.78;;;21.70;nan
24666;BME280;29726;53.532;-1.478;2022-07-22T08:33:40;101191.94;;;21.70;nan
24666;BME280;29726;53.532;-1.478;2022-07-22T08:36:06;101196.84;;;21.69;nan
24666;BME280;29726;53.532;-1.478;2022-07-22T08:38:31;101194.00;;;21.69;nan
24666;BME280;29726;53.532;-1.478;2022-07-22T08:40:57;101199.69;;;21.69;nan
24666;BME280;29726;53.532;-1.478;2022-07-22T08:43:24;101189.63;;;21.68;nan
24666;BME280;29726;53.532;-1.478;2022-07-22T08:45:49;101199.44;;;21.67;nan
24666;BME280;29726;53.532;-1.478;2022-07-22T08:48:15;101191.72;;;21.68;nan
24666;BME280;29726;53.532;-1.478;2022-07-22T08:50:42;101195.84;;;21.67;nan
24666;BME280;29726;53.532;-1.478;2022-07-22T08:53:12;101191.47;;;21.66;nan
24666;BME280;29726;53.532;-1.478;2022-07-22T08:55:45;101188.63;;;21.66;nan
24666;BME280;29726;53.532;-1.478;2022-07-22T08:58:11;101174.41;;;21.66;nan
24666;BME280;29726;53.532;-1.478;2022-07-22T09:00:37;101188.63;;;21.66;nan
24666;BME280;29726;53.532;-1.478;2022-07-22T09:03:19;101187.31;;;21.67;nan
24666;BME280;29726;53.532;-1.478;2022-07-22T09:05:51;101186.28;;;21.64;nan
24666;BME280;29726;53.532;-1.478;2022-07-22T09:08:18;101186.28;;;21.64;nan
24666;BME280;29726;53.532;-1.478;2022-07-22T09:10:43;101186.06;;;21.62;nan
24666;BME280;29726;53.532;-1.478;2022-07-22T09:13:10;101184.25;;;21.65;nan
24666;BME280;29726;53.532;-1.478;2022-07-22T09:15:39;101173.94;;;21.56;nan
24666;BME280;29726;53.532;-1.478;2022-07-22T09:18:10;101174.69;;;21.62;nan
24666;BME280;29726;53.532;-1.478;2022-07-22T09:20:37;101186.28;;;21.64;nan
24666;BME280;29726;53.532;-1.478;2022-07-22T09:23:12;101182.69;;;21.64;nan
24666;BME280;29726;53.532;-1.478;2022-07-22T09:25:38;101174.69;;;21.62;nan
24666;BME280;29726;53.532;-1.478;2022-07-22T09:30:31;101181.16;;;21.63;nan
24666;BME280;29726;53.532;-1.478;2022-07-22T09:32:58;101172.13;;;21.59;nan
24666;BME280;29726;53.532;-1.478;2022-07-22T09:35:24;101180.38;;;21.62;nan
24666;BME280;29726;53.532;-1.478;2022-07-22T09:38:01;101183.72;;;21.61;nan
24666;BME280;29726;53.532;-1.478;2022-07-22T09:40:29;101181.41;;;21.59;nan
24666;BME280;29726;53.532;-1.478;2022-07-22T09:43:00;101180.88;;;21.61;nan
24666;BME280;29726;53.532;-1.478;2022-07-22T09:45:29;101175.72;;;21.59;nan
24666;BME280;29726;53.532;-1.478;2022-07-22T09:47:56;101178.56;;;21.59;nan
24666;BME280;29726;53.532;-1.478;2022-07-22T09:50:30;101170.03;;;21.59;nan
24666;BME280;29726;53.532;-1.478;2022-07-22T09:52:58;101171.34;;;21.58;nan
24666;BME280;29726;53.532;-1.478;2022-07-22T09:55:25;101171.34;;;21.58;nan
24666;BME280;29726;53.532;-1.478;2022-07-22T09:57:53;101175.72;;;21.59;nan
24666;BME280;29726;53.532;-1.478;2022-07-22T10:00:22;101172.13;;;21.59;nan
24666;BME280;29726;53.532;-1.478;2022-07-22T10:02:49;101178.31;;;21.57;nan
24666;BME280;29726;53.532;-1.478;2022-07-22T10:05:18;101166.94;;;21.57;nan
24666;BME280;29726;53.532;-1.478;2022-07-22T10:07:46;101176.22;;;21.58;nan
24666;BME280;29726;53.532;-1.478;2022-07-22T10:10:15;101178.56;;;21.59;nan
24666;BME280;29726;53.532;-1.478;2022-07-22T10:12:42;101177.03;;;21.58;nan
24666;BME280;29726;53.532;-1.478;2022-07-22T10:15:09;101171.84;;;21.57;nan
24666;BME280;29726;53.532;-1.478;2022-07-22T10:17:52;101171.34;;;21.58;nan
24666;BME280;29726;53.532;-1.478;2022-07-22T10:20:20;101165.66;;;21.58;nan
24666;BME280;29726;53.532;-1.478;2022-07-22T10:23:00;101161.25;;;21.57;nan
24666;BME280;29726;53.532;-1.478;2022-07-22T10:25:31;101164.34;;;21.59;nan
24666;BME280;29726;53.532;-1.478;2022-07-22T10:28:04;101159.44;;;21.60;nan
24666;BME280;29726;53.532;-1.478;2022-07-22T10:30:37;101152.97;;;21.59;nan
24666;BME280;29726;53.532;-1.478;2022-07-22T10:33:18;101155.81;;;21.59;nan
24666;BME280;29726;53.532;-1.478;2022-07-22T10:36:01;101156.59;;;21.60;nan
24666;BME280;29726;53.532;-1.478;2022-07-22T10:38:29;101154.53;;;21.60;nan
24666;BME280;29726;53.532;-1.478;2022-07-22T10:41:00;101152.22;;;21.59;nan
24666;BME280;29726;53.532;-1.478;2022-07-22T10:43:27;101147.28;;;21.59;nan
24666;BME280;29726;53.532;-1.478;2022-07-22T10:45:56;101154.53;;;21.60;nan
24666;BME280;29726;53.532;-1.478;2022-07-22T10:48:44;101137.47;;;21.60;nan
24666;BME280;29726;53.532;-1.478;2022-07-22T10:51:20;101143.94;;;21.61;nan
24666;BME280;29726;53.532;-1.478;2022-07-22T10:53:57;101129.72;;;21.61;nan
24666;BME280;29726;53.532;-1.478;2022-07-22T10:56:44;101134.91;;;21.62;nan
24666;BME280;29726;53.532;-1.478;2022-07-22T10:59:13;101131.31;;;21.62;nan
24666;BME280;29726;53.532;-1.478;2022-07-22T11:01:43;101130.75;;;21.63;nan
24666;BME280;29726;53.532;-1.478;2022-07-22T11:06:42;101128.16;;;21.65;nan
24666;BME280;29726;53.532;-1.478;2022-07-22T11:09:10;101133.09;;;21.65;nan
24666;BME280;29726;53.532;-1.478;2022-07-22T11:11:50;101134.38;;;21.64;nan
24666;BME280;29726;53.532;-1.478;2022-07-22T11:16:47;101129.47;;;21.64;nan
24666;BME280;29726;53.532;-1.478;2022-07-22T11:19:13;101119.94;;;21.62;nan
24666;BME280;29726;53.532;-1.478;2022-07-22T11:21:39;101115.00;;;21.62;nan
24666;BME280;29726;53.532;-1.478;2022-07-22T11:24:06;101116.78;;;21.65;nan
24666;BME280;29726;53.532;-1.478;2022-07-22T11:26:39;101114.72;;;21.66;nan
24666;BME280;29726;53.532;-1.478;2022-07-22T11:29:06;101117.56;;;21.66;nan
24666;BME280;29726;53.532;-1.478;2022-07-22T11:31:32;101114.19;;;21.67;nan
24666;BME280;29726;53.532;-1.478;2022-07-22T11:34:09;101118.56;;;21.68;nan
24666;BME280;29726;53.532;-1.478;2022-07-22T11:36:37;101116.50;;;21.69;nan
24666;BME280;29726;53.532;-1.478;2022-07-22T11:39:04;101114.97;;;21.68;nan
24666;BME280;29726;53.532;-1.478;2022-07-22T11:41:30;101117.25;;;21.69;nan
24666;BME280;29726;53.532;-1.478;2022-07-22T11:43:56;101108.72;;;21.69;nan
24666;BME280;29726;53.532;-1.478;2022-07-22T11:46:22;101110.31;;;21.70;nan
24666;BME280;29726;53.532;-1.478;2022-07-22T11:48:51;101115.44;;;21.72;nan
24666;BME280;29726;53.532;-1.478;2022-07-22T11:51:18;101114.94;;;21.73;nan
24666;BME280;29726;53.532;-1.478;2022-07-22T11:53:44;101101.00;;;21.70;nan
24666;BME280;29726;53.532;-1.478;2022-07-22T11:56:10;101109.25;;;21.73;nan
24666;BME280;29726;53.532;-1.478;2022-07-22T11:58:44;101107.16;;;21.74;nan
24666;BME280;29726;53.532;-1.478;2022-07-22T12:01:13;101101.47;;;21.74;nan
24666;BME280;29726;53.532;-1.478;2022-07-22T12:03:42;101095.78;;;21.74;nan
24666;BME280;29726;53.532;-1.478;2022-07-22T12:06:11;101097.31;;;21.75;nan
24666;BME280;29726;53.532;-1.478;2022-07-22T12:08:46;101102.25;;;21.74;nan
24666;BME280;29726;53.532;-1.478;2022-07-22T12:11:15;101098.09;;;21.75;nan
24666;BME280;29726;53.532;-1.478;2022-07-22T12:13:44;101096.81;;;21.76;nan
24666;BME280;29726;53.532;-1.478;2022-07-22T12:18:42;101099.66;;;21.76;nan
24666;BME280;29726;53.532;-1.478;2022-07-22T12:21:08;101087.81;;;21.72;nan
24666;BME280;29726;53.532;-1.478;2022-07-22T12:23:34;101094.72;;;21.77;nan
24666;BME280;29726;53.532;-1.478;2022-07-22T12:26:01;101088.28;;;21.76;nan
24666;BME280;29726;53.532;-1.478;2022-07-22T12:28:26;101098.34;;;21.77;nan
24666;BME280;29726;53.532;-1.478;2022-07-22T12:30:54;101086.44;;;21.79;nan
24666;BME280;29726;53.532;-1.478;2022-07-22T12:33:21;101090.06;;;21.79;nan
24666;BME280;29726;53.532;-1.478;2022-07-22T12:38:25;101082.03;;;21.78;nan
24666;BME280;29726;53.532;-1.478;2022-07-22T12:40:50;101082.03;;;21.78;nan
24666;BME280;29726;53.532;-1.478;2022-07-22T12:43:16;101085.13;;;21.80;nan
24666;BME280;29726;53.532;-1.478;2022-07-22T12:45:42;101084.38;;;21.79;nan
24666;BME280;29726;53.532;-1.478;2022-07-22T12:48:09;101079.97;;;21.78;nan
24666;BME280;29726;53.532;-1.478;2022-07-22T12:50:57;101077.13;;;21.78;nan
24666;BME280;29726;53.532;-1.478;2022-07-22T12:53:24;101073.75;;;21.80;nan
24666;BME280;29726;53.532;-1.478;2022-07-22T12:55:54;101072.22;;;21.79;nan
24666;BME280;29726;53.532;-1.478;2022-07-22T12:58:29;101076.34;;;21.78;nan
24666;BME280;29726;53.532;-1.478;2022-07-22T13:00:57;101075.84;;;21.79;nan
24666;BME280;29726;53.532;-1.478;2022-07-22T13:03:24;101074.28;;;21.78;nan
24666;BME280;29726;53.532;-1.478;2022-07-22T13:05:58;101071.47;;;21.78;nan
24666;BME280;29726;53.532;-1.478;2022-07-22T13:08:25;101069.38;;;21.79;nan
24666;BME280;29726;53.532;-1.478;2022-07-22T13:10:52;101064.00;;;21.75;nan